sensor_id;sensor_type;location;lat;lon;timestamp;P1;durP1;ratioP1;P2;durP2;ratioP2
51866;SDS011;52862;52.504;13.480;2023-04-03T00:00:39;11.40;;;2.73;;
51866;SDS011;52862;52.504;13.480;2023-04-03T00:03:06;11.20;;;2.40;;
51866;SDS011;52862;52.504;13.480;2023-04-03T00:05:33;9.30;;;2.93;;
51866;SDS011;52862;52.504;13.480;2023-04-03T00:08:00;9.47;;;2.17;;
51866;SDS011;52862;52.504;13.480;2023-04-03T00:10:28;9.13;;;2.27;;
51866;SDS011;52862;52.504;13.480;2023-04-03T00:12:55;9.50;;;2.60;;
51866;SDS011;52862;52.504;13.480;2023-04-03T00:15:22;7.33;;;2.73;;
51866;SDS011;52862;52.504;13.480;2023-04-03T00:17:48;11.27;;;3.07;;
51866;SDS011;52862;52.504;13.480;2023-04-03T00:20:15;12.67;;;2.43;;
51866;SDS011;52862;52.504;13.480;2023-04-03T00:22:42;14.10;;;2.40;;
51866;SDS011;52862;52.504;13.480;2023-04-03T00:25:09;9.27;;;2.50;;
51866;SDS011;52862;52.504;13.480;2023-04-03T00:27:37;5.93;;;2.10;;
51866;SDS011;52862;52.504;13.480;2023-04-03T00:30:05;8.97;;;2.40;;
51866;SDS011;52862;52.504;13.480;2023-04-03T00:32:34;14.67;;;2.73;;
51866;SDS011;52862;52.504;13.480;2023-04-03T00:35:01;13.73;;;3.00;;
51866;SDS011;52862;52.504;13.480;2023-04-03T00:37:28;12.17;;;2.77;;
51866;SDS011;52862;52.504;13.480;2023-04-03T00:39:56;12.13;;;2.93;;
51866;SDS011;52862;52.504;13.480;2023-04-03T00:42:23;11.13;;;2.70;;
51866;SDS011;52862;52.504;13.480;2023-04-03T00:47:55;14.57;;;2.30;;
51866;SDS011;52862;52.504;13.480;2023-04-03T00:50:25;9.67;;;1.97;;
51866;SDS011;52862;52.504;13.480;2023-04-03T00:52:52;12.83;;;2.80;;
51866;SDS011;52862;52.504;13.480;2023-04-03T00:55:20;9.93;;;1.97;;
51866;SDS011;52862;52.504;13.480;2023-04-03T00:57:47;12.07;;;2.23;;
51866;SDS011;52862;52.504;13.480;2023-04-03T01:00:17;13.63;;;2.63;;
51866;SDS011;52862;52.504;13.480;2023-04-03T01:02:47;7.03;;;2.00;;
51866;SDS011;52862;52.504;13.480;2023-04-03T01:05:15;10.03;;;2.03;;
51866;SDS011;52862;52.504;13.480;2023-04-03T01:07:43;11.80;;;2.37;;
51866;SDS011;52862;52.504;13.480;2023-04-03T01:10:11;13.63;;;3.40;;
51866;SDS011;52862;52.504;13.480;2023-04-03T01:12:41;10.57;;;2.13;;
51866;SDS011;52862;52.504;13.480;2023-04-03T01:15:13;13.43;;;2.70;;
51866;SDS011;52862;52.504;13.480;2023-04-03T01:17:42;11.37;;;2.30;;
51866;SDS011;52862;52.504;13.480;2023-04-03T01:20:25;7.93;;;2.53;;
51866;SDS011;52862;52.504;13.480;2023-04-03T01:23:22;8.80;;;2.27;;
51866;SDS011;52862;52.504;13.480;2023-04-03T01:25:57;15.97;;;2.37;;
51866;SDS011;52862;52.504;13.480;2023-04-03T01:28:25;9.03;;;2.07;;
51866;SDS011;52862;52.504;13.480;2023-04-03T01:30:56;12.07;;;2.27;;
51866;SDS011;52862;52.504;13.480;2023-04-03T01:33:29;17.90;;;2.10;;
51866;SDS011;52862;52.504;13.480;2023-04-03T01:35:56;11.00;;;2.70;;
51866;SDS011;52862;52.504;13.480;2023-04-03T01:38:23;10.73;;;2.43;;
51866;SDS011;52862;52.504;13.480;2023-04-03T01:40:50;12.83;;;2.80;;
51866;SDS011;52862;52.504;13.480;2023-04-03T01:43:18;9.90;;;2.03;;
51866;SDS011;52862;52.504;13.480;2023-04-03T01:45:44;4.23;;;2.07;;
51866;SDS011;52862;52.504;13.480;2023-04-03T01:48:12;10.90;;;2.53;;
51866;SDS011;52862;52.504;13.480;2023-04-03T01:50:40;19.17;;;3.00;;
51866;SDS011;52862;52.504;13.480;2023-04-03T01:53:06;9.13;;;2.23;;
51866;SDS011;52862;52.504;13.480;2023-04-03T01:55:34;13.07;;;2.53;;
51866;SDS011;52862;52.504;13.480;2023-04-03T01:58:01;7.97;;;2.23;;
51866;SDS011;52862;52.504;13.480;2023-04-03T02:00:28;8.47;;;2.30;;
51866;SDS011;52862;52.504;13.480;2023-04-03T02:02:55;22.87;;;2.40;;
51866;SDS011;52862;52.504;13.480;2023-04-03T02:05:22;10.90;;;2.37;;
51866;SDS011;52862;52.504;13.480;2023-04-03T02:07:50;8.63;;;2.03;;
51866;SDS011;52862;52.504;13.480;2023-04-03T02:10:17;7.53;;;2.30;;
51866;SDS011;52862;52.504;13.480;2023-04-03T02:12:43;15.60;;;2.50;;
51866;SDS011;52862;52.504;13.480;2023-04-03T02:15:10;9.57;;;2.13;;
51866;SDS011;52862;52.504;13.480;2023-04-03T02:17:37;16.33;;;2.10;;
51866;SDS011;52862;52.504;13.480;2023-04-03T02:20:05;11.57;;;2.83;;
51866;SDS011;52862;52.504;13.480;2023-04-03T02:22:32;13.43;;;2.93;;
51866;SDS011;52862;52.504;13.480;2023-04-03T02:25:00;8.30;;;2.00;;
51866;SDS011;52862;52.504;13.480;2023-04-03T02:27:27;10.97;;;2.57;;
51866;SDS011;52862;52.504;13.480;2023-04-03T02:29:54;8.40;;;2.07;;
51866;SDS011;52862;52.504;13.480;2023-04-03T02:32:21;11.53;;;2.20;;
51866;SDS011;52862;52.504;13.480;2023-04-03T02:34:48;9.67;;;2.70;;
51866;SDS011;52862;52.504;13.480;2023-04-03T02:37:15;18.43;;;3.10;;
51866;SDS011;52862;52.504;13.480;2023-04-03T02:39:42;9.70;;;2.13;;
51866;SDS011;52862;52.504;13.480;2023-04-03T02:42:10;9.30;;;1.93;;
51866;SDS011;52862;52.504;13.480;2023-04-03T02:44:36;10.67;;;2.37;;
51866;SDS011;52862;52.504;13.480;2023-04-03T02:47:04;17.97;;;3.27;;
51866;SDS011;52862;52.504;13.480;2023-04-03T02:49:31;16.97;;;3.43;;
51866;SDS011;52862;52.504;13.480;2023-04-03T02:51:58;15.80;;;3.37;;
51866;SDS011;52862;52.504;13.480;2023-04-03T02:54:25;6.07;;;2.20;;
51866;SDS011;52862;52.504;13.480;2023-04-03T02:56:54;13.57;;;2.30;;
51866;SDS011;52862;52.504;13.480;2023-04-03T02:59:21;13.80;;;2.20;;
51866;SDS011;52862;52.504;13.480;2023-04-03T03:01:48;8.17;;;2.60;;
51866;SDS011;52862;52.504;13.480;2023-04-03T03:04:15;7.27;;;2.40;;
51866;SDS011;52862;52.504;13.480;2023-04-03T03:06:42;14.07;;;2.60;;
51866;SDS011;52862;52.504;13.480;2023-04-03T03:09:10;14.43;;;2.70;;
51866;SDS011;52862;52.504;13.480;2023-04-03T03:11:38;16.00;;;2.83;;
51866;SDS011;52862;52.504;13.480;2023-04-03T03:14:05;17.07;;;2.80;;
51866;SDS011;52862;52.504;13.480;2023-04-03T03:16:33;13.27;;;3.63;;
51866;SDS011;52862;52.504;13.480;2023-04-03T03:19:00;12.53;;;3.00;;
51866;SDS011;52862;52.504;13.480;2023-04-03T03:21:27;13.80;;;2.60;;
51866;SDS011;52862;52.504;13.480;2023-04-03T03:23:54;12.47;;;2.03;;
51866;SDS011;52862;52.504;13.480;2023-04-03T03:26:21;15.77;;;2.03;;
51866;SDS011;52862;52.504;13.480;2023-04-03T03:28:47;11.37;;;2.30;;
51866;SDS011;52862;52.504;13.480;2023-04-03T03:31:15;12.83;;;2.20;;
51866;SDS011;52862;52.504;13.480;2023-04-03T03:33:42;14.20;;;2.40;;
51866;SDS011;52862;52.504;13.480;2023-04-03T03:36:09;10.20;;;2.17;;
51866;SDS011;52862;52.504;13.480;2023-04-03T03:38:36;12.77;;;2.17;;
51866;SDS011;52862;52.504;13.480;2023-04-03T03:41:03;19.00;;;2.23;;
51866;SDS011;52862;52.504;13.480;2023-04-03T03:43:31;13.03;;;2.43;;
51866;SDS011;52862;52.504;13.480;2023-04-03T03:45:57;19.43;;;2.93;;
51866;SDS011;52862;52.504;13.480;2023-04-03T03:48:24;13.13;;;2.57;;
51866;SDS011;52862;52.504;13.480;2023-04-03T03:50:55;6.20;;;2.27;;
51866;SDS011;52862;52.504;13.480;2023-04-03T03:53:22;8.17;;;2.67;;
51866;SDS011;52862;52.504;13.480;2023-04-03T03:55:49;12.93;;;2.53;;
51866;SDS011;52862;52.504;13.480;2023-04-03T03:58:16;8.87;;;2.23;;
51866;SDS011;52862;52.504;13.480;2023-04-03T04:00:43;14.73;;;2.50;;
51866;SDS011;52862;52.504;13.480;2023-04-03T04:03:10;9.23;;;2.23;;
51866;SDS011;52862;52.504;13.480;2023-04-03T04:05:37;15.80;;;2.43;;
51866;SDS011;52862;52.504;13.480;2023-04-03T04:08:05;11.10;;;2.20;;
51866;SDS011;52862;52.504;13.480;2023-04-03T04:10:32;9.73;;;2.50;;
51866;SDS011;52862;52.504;13.480;2023-04-03T04:13:00;15.53;;;2.53;;
51866;SDS011;52862;52.504;13.480;2023-04-03T04:15:27;15.03;;;3.53;;
51866;SDS011;52862;52.504;13.480;2023-04-03T04:17:54;11.90;;;3.10;;
51866;SDS011;52862;52.504;13.480;2023-04-03T04:20:21;14.17;;;2.90;;
51866;SDS011;52862;52.504;13.480;2023-04-03T04:22:48;12.67;;;2.67;;
51866;SDS011;52862;52.504;13.480;2023-04-03T04:25:16;16.37;;;3.27;;
51866;SDS011;52862;52.504;13.480;2023-04-03T04:27:43;17.63;;;2.93;;
51866;SDS011;52862;52.504;13.480;2023-04-03T04:30:10;13.90;;;3.33;;
51866;SDS011;52862;52.504;13.480;2023-04-03T04:32:38;11.90;;;2.60;;
51866;SDS011;52862;52.504;13.480;2023-04-03T04:35:14;16.07;;;3.03;;
51866;SDS011;52862;52.504;13.480;2023-04-03T04:37:42;29.07;;;7.30;;
51866;SDS011;52862;52.504;13.480;2023-04-03T04:40:09;14.90;;;3.30;;
51866;SDS011;52862;52.504;13.480;2023-04-03T04:42:37;10.27;;;2.90;;
51866;SDS011;52862;52.504;13.480;2023-04-03T04:45:04;11.27;;;2.90;;
51866;SDS011;52862;52.504;13.480;2023-04-03T04:47:33;7.30;;;2.30;;
51866;SDS011;52862;52.504;13.480;2023-04-03T04:50:00;19.33;;;3.00;;
51866;SDS011;52862;52.504;13.480;2023-04-03T04:52:26;9.03;;;2.33;;
51866;SDS011;52862;52.504;13.480;2023-04-03T04:54:53;6.37;;;2.63;;
51866;SDS011;52862;52.504;13.480;2023-04-03T04:57:20;17.47;;;2.97;;
51866;SDS011;52862;52.504;13.480;2023-04-03T04:59:48;13.80;;;2.60;;
51866;SDS011;52862;52.504;13.480;2023-04-03T05:02:14;11.67;;;2.43;;
51866;SDS011;52862;52.504;13.480;2023-04-03T05:04:42;7.60;;;2.23;;
51866;SDS011;52862;52.504;13.480;2023-04-03T05:07:09;8.53;;;2.33;;
51866;SDS011;52862;52.504;13.480;2023-04-03T05:09:36;12.07;;;3.40;;
51866;SDS011;52862;52.504;13.480;2023-04-03T05:12:03;20.27;;;3.23;;
51866;SDS011;52862;52.504;13.480;2023-04-03T05:14:30;14.93;;;2.73;;
51866;SDS011;52862;52.504;13.480;2023-04-03T05:16:58;18.40;;;2.93;;
51866;SDS011;52862;52.504;13.480;2023-04-03T05:19:25;13.43;;;2.93;;
51866;SDS011;52862;52.504;13.480;2023-04-03T05:21:51;24.77;;;3.07;;
51866;SDS011;52862;52.504;13.480;2023-04-03T05:24:18;11.70;;;2.47;;
51866;SDS011;52862;52.504;13.480;2023-04-03T05:26:45;18.67;;;3.60;;
51866;SDS011;52862;52.504;13.480;2023-04-03T05:29:12;13.17;;;2.87;;
51866;SDS011;52862;52.504;13.480;2023-04-03T05:31:39;16.43;;;3.07;;
51866;SDS011;52862;52.504;13.480;2023-04-03T05:34:07;10.27;;;3.17;;
51866;SDS011;52862;52.504;13.480;2023-04-03T05:36:35;9.23;;;3.00;;
51866;SDS011;52862;52.504;13.480;2023-04-03T05:39:03;11.13;;;2.73;;
51866;SDS011;52862;52.504;13.480;2023-04-03T05:41:30;28.13;;;3.10;;
51866;SDS011;52862;52.504;13.480;2023-04-03T05:43:57;10.53;;;2.67;;
51866;SDS011;52862;52.504;13.480;2023-04-03T05:46:23;23.83;;;3.53;;
51866;SDS011;52862;52.504;13.480;2023-04-03T05:48:50;17.43;;;2.93;;
51866;SDS011;52862;52.504;13.480;2023-04-03T05:51:18;12.57;;;2.93;;
51866;SDS011;52862;52.504;13.480;2023-04-03T05:53:47;11.97;;;2.33;;
51866;SDS011;52862;52.504;13.480;2023-04-03T05:56:16;16.00;;;2.77;;
51866;SDS011;52862;52.504;13.480;2023-04-03T05:58:43;9.30;;;2.63;;
51866;SDS011;52862;52.504;13.480;2023-04-03T06:01:10;8.70;;;2.70;;
51866;SDS011;52862;52.504;13.480;2023-04-03T06:03:37;12.80;;;2.60;;
51866;SDS011;52862;52.504;13.480;2023-04-03T06:06:05;12.57;;;2.63;;
51866;SDS011;52862;52.504;13.480;2023-04-03T06:08:34;17.70;;;2.90;;
51866;SDS011;52862;52.504;13.480;2023-04-03T06:11:01;18.63;;;2.87;;
51866;SDS011;52862;52.504;13.480;2023-04-03T06:13:28;15.63;;;2.60;;
51866;SDS011;52862;52.504;13.480;2023-04-03T06:15:55;13.47;;;2.07;;
51866;SDS011;52862;52.504;13.480;2023-04-03T06:18:23;17.43;;;2.67;;
51866;SDS011;52862;52.504;13.480;2023-04-03T06:20:49;13.53;;;2.87;;
51866;SDS011;52862;52.504;13.480;2023-04-03T06:23:16;11.37;;;2.57;;
51866;SDS011;52862;52.504;13.480;2023-04-03T06:25:44;31.67;;;2.50;;
51866;SDS011;52862;52.504;13.480;2023-04-03T06:28:11;15.73;;;2.60;;
51866;SDS011;52862;52.504;13.480;2023-04-03T06:30:38;15.50;;;2.83;;
51866;SDS011;52862;52.504;13.480;2023-04-03T06:33:05;13.30;;;2.63;;
51866;SDS011;52862;52.504;13.480;2023-04-03T06:35:32;14.77;;;2.20;;
51866;SDS011;52862;52.504;13.480;2023-04-03T06:38:00;11.53;;;2.27;;
51866;SDS011;52862;52.504;13.480;2023-04-03T06:40:29;13.53;;;2.63;;
51866;SDS011;52862;52.504;13.480;2023-04-03T06:42:57;11.87;;;2.03;;
51866;SDS011;52862;52.504;13.480;2023-04-03T06:45:24;17.33;;;2.77;;
51866;SDS011;52862;52.504;13.480;2023-04-03T06:47:51;11.00;;;2.53;;
51866;SDS011;52862;52.504;13.480;2023-04-03T06:50:18;11.00;;;2.53;;
51866;SDS011;52862;52.504;13.480;2023-04-03T06:52:45;16.17;;;2.30;;
51866;SDS011;52862;52.504;13.480;2023-04-03T06:55:12;6.80;;;1.60;;
51866;SDS011;52862;52.504;13.480;2023-04-03T06:57:39;14.23;;;2.20;;
51866;SDS011;52862;52.504;13.480;2023-04-03T07:00:08;9.17;;;2.03;;
51866;SDS011;52862;52.504;13.480;2023-04-03T07:02:37;7.00;;;1.50;;
51866;SDS011;52862;52.504;13.480;2023-04-03T07:05:04;5.87;;;1.57;;
51866;SDS011;52862;52.504;13.480;2023-04-03T07:07:32;9.50;;;2.03;;
51866;SDS011;52862;52.504;13.480;2023-04-03T07:09:59;13.17;;;1.90;;
51866;SDS011;52862;52.504;13.480;2023-04-03T07:12:26;6.77;;;1.80;;
51866;SDS011;52862;52.504;13.480;2023-04-03T07:14:53;9.23;;;1.90;;
51866;SDS011;52862;52.504;13.480;2023-04-03T07:17:20;4.47;;;1.53;;
51866;SDS011;52862;52.504;13.480;2023-04-03T07:19:47;12.90;;;2.27;;
51866;SDS011;52862;52.504;13.480;2023-04-03T07:22:14;7.70;;;1.77;;
51866;SDS011;52862;52.504;13.480;2023-04-03T07:24:41;13.83;;;1.90;;
51866;SDS011;52862;52.504;13.480;2023-04-03T07:27:08;6.93;;;1.50;;
51866;SDS011;52862;52.504;13.480;2023-04-03T07:29:38;4.47;;;1.63;;
51866;SDS011;52862;52.504;13.480;2023-04-03T07:32:05;7.53;;;1.67;;
51866;SDS011;52862;52.504;13.480;2023-04-03T07:34:33;5.47;;;1.80;;
51866;SDS011;52862;52.504;13.480;2023-04-03T07:37:00;11.07;;;1.67;;
51866;SDS011;52862;52.504;13.480;2023-04-03T07:39:26;11.13;;;1.67;;
51866;SDS011;52862;52.504;13.480;2023-04-03T07:41:53;7.33;;;1.80;;
51866;SDS011;52862;52.504;13.480;2023-04-03T07:44:21;7.57;;;1.70;;
51866;SDS011;52862;52.504;13.480;2023-04-03T07:46:48;8.93;;;1.43;;
51866;SDS011;52862;52.504;13.480;2023-04-03T07:49:16;10.40;;;1.60;;
51866;SDS011;52862;52.504;13.480;2023-04-03T07:51:44;18.17;;;1.30;;
51866;SDS011;52862;52.504;13.480;2023-04-03T07:54:10;10.63;;;1.50;;
51866;SDS011;52862;52.504;13.480;2023-04-03T07:56:37;10.40;;;1.87;;
51866;SDS011;52862;52.504;13.480;2023-04-03T07:59:04;17.20;;;1.80;;
51866;SDS011;52862;52.504;13.480;2023-04-03T08:01:31;8.30;;;1.50;;
51866;SDS011;52862;52.504;13.480;2023-04-03T08:03:59;6.30;;;1.80;;
51866;SDS011;52862;52.504;13.480;2023-04-03T08:06:26;5.27;;;1.30;;
51866;SDS011;52862;52.504;13.480;2023-04-03T08:09:12;14.33;;;2.47;;
51866;SDS011;52862;52.504;13.480;2023-04-03T08:11:39;9.80;;;1.90;;
51866;SDS011;52862;52.504;13.480;2023-04-03T08:14:06;15.33;;;1.50;;
51866;SDS011;52862;52.504;13.480;2023-04-03T08:16:33;11.63;;;1.83;;
51866;SDS011;52862;52.504;13.480;2023-04-03T08:19:00;9.73;;;1.37;;
51866;SDS011;52862;52.504;13.480;2023-04-03T08:21:28;7.73;;;1.77;;
51866;SDS011;52862;52.504;13.480;2023-04-03T08:23:55;7.47;;;1.60;;
51866;SDS011;52862;52.504;13.480;2023-04-03T08:26:22;7.53;;;1.60;;
51866;SDS011;52862;52.504;13.480;2023-04-03T08:28:49;8.63;;;1.60;;
51866;SDS011;52862;52.504;13.480;2023-04-03T08:31:17;5.13;;;1.43;;
51866;SDS011;52862;52.504;13.480;2023-04-03T08:33:45;5.70;;;1.60;;
51866;SDS011;52862;52.504;13.480;2023-04-03T08:36:16;16.50;;;2.40;;
51866;SDS011;52862;52.504;13.480;2023-04-03T08:38:45;11.03;;;1.70;;
51866;SDS011;52862;52.504;13.480;2023-04-03T08:41:14;20.97;;;1.97;;
51866;SDS011;52862;52.504;13.480;2023-04-03T08:43:53;3.67;;;1.40;;
51866;SDS011;52862;52.504;13.480;2023-04-03T08:46:30;9.33;;;1.47;;
51866;SDS011;52862;52.504;13.480;2023-04-03T08:49:06;3.97;;;1.27;;
51866;SDS011;52862;52.504;13.480;2023-04-03T08:51:42;5.77;;;1.40;;
51866;SDS011;52862;52.504;13.480;2023-04-03T08:54:17;5.77;;;1.70;;
51866;SDS011;52862;52.504;13.480;2023-04-03T08:56:52;5.07;;;1.70;;
51866;SDS011;52862;52.504;13.480;2023-04-03T08:59:21;3.27;;;1.40;;
51866;SDS011;52862;52.504;13.480;2023-04-03T09:01:53;7.57;;;1.57;;
51866;SDS011;52862;52.504;13.480;2023-04-03T09:04:22;14.87;;;1.90;;
51866;SDS011;52862;52.504;13.480;2023-04-03T09:06:49;11.47;;;1.90;;
51866;SDS011;52862;52.504;13.480;2023-04-03T09:09:24;7.47;;;1.63;;
51866;SDS011;52862;52.504;13.480;2023-04-03T09:11:59;7.97;;;1.67;;
51866;SDS011;52862;52.504;13.480;2023-04-03T09:14:37;3.83;;;1.23;;
51866;SDS011;52862;52.504;13.480;2023-04-03T09:17:09;7.83;;;1.70;;
51866;SDS011;52862;52.504;13.480;2023-04-03T09:19:45;3.53;;;1.23;;
51866;SDS011;52862;52.504;13.480;2023-04-03T09:22:18;3.10;;;1.30;;
51866;SDS011;52862;52.504;13.480;2023-04-03T09:24:50;9.70;;;1.30;;
51866;SDS011;52862;52.504;13.480;2023-04-03T09:27:25;6.20;;;1.60;;
51866;SDS011;52862;52.504;13.480;2023-04-03T09:29:55;6.07;;;1.10;;
51866;SDS011;52862;52.504;13.480;2023-04-03T09:32:25;6.43;;;1.40;;
51866;SDS011;52862;52.504;13.480;2023-04-03T09:34:54;8.07;;;1.57;;
51866;SDS011;52862;52.504;13.480;2023-04-03T09:37:37;6.03;;;1.70;;
51866;SDS011;52862;52.504;13.480;2023-04-03T09:40:12;6.33;;;1.77;;
51866;SDS011;52862;52.504;13.480;2023-04-03T09:42:56;8.27;;;1.60;;
51866;SDS011;52862;52.504;13.480;2023-04-03T09:45:28;7.50;;;2.10;;
51866;SDS011;52862;52.504;13.480;2023-04-03T09:48:06;5.20;;;1.50;;
51866;SDS011;52862;52.504;13.480;2023-04-03T09:50:52;6.33;;;1.80;;
51866;SDS011;52862;52.504;13.480;2023-04-03T09:53:34;12.57;;;2.17;;
51866;SDS011;52862;52.504;13.480;2023-04-03T09:56:03;4.30;;;1.47;;
51866;SDS011;52862;52.504;13.480;2023-04-03T09:58:45;4.13;;;1.57;;
51866;SDS011;52862;52.504;13.480;2023-04-03T10:01:25;5.07;;;1.60;;
51866;SDS011;52862;52.504;13.480;2023-04-03T10:04:02;8.43;;;1.37;;
51866;SDS011;52862;52.504;13.480;2023-04-03T10:06:33;2.80;;;1.20;;
51866;SDS011;52862;52.504;13.480;2023-04-03T10:09:03;7.50;;;1.60;;
51866;SDS011;52862;52.504;13.480;2023-04-03T10:11:31;6.73;;;1.80;;
51866;SDS011;52862;52.504;13.480;2023-04-03T10:13:58;12.00;;;1.97;;
51866;SDS011;52862;52.504;13.480;2023-04-03T10:16:28;9.67;;;1.70;;
51866;SDS011;52862;52.504;13.480;2023-04-03T10:19:05;5.00;;;1.33;;
51866;SDS011;52862;52.504;13.480;2023-04-03T10:21:44;6.67;;;1.50;;
51866;SDS011;52862;52.504;13.480;2023-04-03T10:24:15;6.90;;;1.53;;
51866;SDS011;52862;52.504;13.480;2023-04-03T10:26:49;11.73;;;1.67;;
51866;SDS011;52862;52.504;13.480;2023-04-03T10:29:36;8.13;;;2.00;;
51866;SDS011;52862;52.504;13.480;2023-04-03T10:32:13;8.20;;;1.67;;
51866;SDS011;52862;52.504;13.480;2023-04-03T10:34:57;2.70;;;1.17;;
51866;SDS011;52862;52.504;13.480;2023-04-03T10:37:35;7.50;;;1.67;;
51866;SDS011;52862;52.504;13.480;2023-04-03T10:40:15;10.63;;;1.20;;
51866;SDS011;52862;52.504;13.480;2023-04-03T10:42:52;4.13;;;1.33;;
51866;SDS011;52862;52.504;13.480;2023-04-03T10:45:25;8.20;;;1.57;;
51866;SDS011;52862;52.504;13.480;2023-04-03T10:47:58;4.67;;;1.40;;
51866;SDS011;52862;52.504;13.480;2023-04-03T10:50:44;2.87;;;1.30;;
51866;SDS011;52862;52.504;13.480;2023-04-03T10:53:18;9.03;;;1.50;;
51866;SDS011;52862;52.504;13.480;2023-04-03T10:55:53;5.90;;;1.80;;
51866;SDS011;52862;52.504;13.480;2023-04-03T10:58:29;7.03;;;1.40;;
51866;SDS011;52862;52.504;13.480;2023-04-03T11:01:00;12.10;;;1.33;;
51866;SDS011;52862;52.504;13.480;2023-04-03T11:03:34;10.73;;;2.20;;
51866;SDS011;52862;52.504;13.480;2023-04-03T11:06:07;3.23;;;1.30;;
51866;SDS011;52862;52.504;13.480;2023-04-03T11:08:37;2.60;;;1.17;;
51866;SDS011;52862;52.504;13.480;2023-04-03T11:11:08;19.70;;;1.47;;
51866;SDS011;52862;52.504;13.480;2023-04-03T11:13:40;7.83;;;1.70;;
51866;SDS011;52862;52.504;13.480;2023-04-03T11:16:11;11.87;;;1.70;;
51866;SDS011;52862;52.504;13.480;2023-04-03T11:18:44;5.50;;;1.47;;
51866;SDS011;52862;52.504;13.480;2023-04-03T11:21:16;11.43;;;1.30;;
51866;SDS011;52862;52.504;13.480;2023-04-03T11:23:47;3.20;;;1.60;;
51866;SDS011;52862;52.504;13.480;2023-04-03T11:26:18;5.70;;;1.60;;
51866;SDS011;52862;52.504;13.480;2023-04-03T11:28:46;4.20;;;1.10;;
51866;SDS011;52862;52.504;13.480;2023-04-03T11:31:31;10.83;;;1.60;;
51866;SDS011;52862;52.504;13.480;2023-04-03T11:34:15;5.53;;;1.77;;
51866;SDS011;52862;52.504;13.480;2023-04-03T11:36:49;9.23;;;1.90;;
51866;SDS011;52862;52.504;13.480;2023-04-03T11:39:21;5.17;;;1.40;;
51866;SDS011;52862;52.504;13.480;2023-04-03T11:41:50;8.87;;;1.47;;
51866;SDS011;52862;52.504;13.480;2023-04-03T11:44:28;8.40;;;1.73;;
51866;SDS011;52862;52.504;13.480;2023-04-03T11:46:59;5.10;;;1.90;;
51866;SDS011;52862;52.504;13.480;2023-04-03T11:55:44;5.97;;;1.67;;
51866;SDS011;52862;52.504;13.480;2023-04-03T11:58:19;6.57;;;1.90;;
51866;SDS011;52862;52.504;13.480;2023-04-03T12:00:52;9.97;;;2.00;;
51866;SDS011;52862;52.504;13.480;2023-04-03T12:12:57;4.40;;;1.50;;
51866;SDS011;52862;52.504;13.480;2023-04-03T12:21:09;5.33;;;1.47;;
51866;SDS011;52862;52.504;13.480;2023-04-03T12:26:24;8.40;;;1.80;;
51866;SDS011;52862;52.504;13.480;2023-04-03T12:29:10;2.37;;;1.07;;
51866;SDS011;52862;52.504;13.480;2023-04-03T12:31:46;4.47;;;1.50;;
51866;SDS011;52862;52.504;13.480;2023-04-03T12:34:27;7.83;;;1.27;;
51866;SDS011;52862;52.504;13.480;2023-04-03T12:37:15;7.50;;;1.30;;
51866;SDS011;52862;52.504;13.480;2023-04-03T12:39:58;11.50;;;1.60;;
51866;SDS011;52862;52.504;13.480;2023-04-03T12:42:38;4.90;;;1.00;;
51866;SDS011;52862;52.504;13.480;2023-04-03T12:45:19;4.80;;;1.30;;
51866;SDS011;52862;52.504;13.480;2023-04-03T12:47:48;9.20;;;1.83;;
51866;SDS011;52862;52.504;13.480;2023-04-03T12:50:18;4.67;;;1.60;;
51866;SDS011;52862;52.504;13.480;2023-04-03T12:52:50;3.53;;;1.50;;
51866;SDS011;52862;52.504;13.480;2023-04-03T12:55:23;3.27;;;1.43;;
51866;SDS011;52862;52.504;13.480;2023-04-03T12:57:51;5.80;;;1.73;;
51866;SDS011;52862;52.504;13.480;2023-04-03T13:00:25;8.97;;;1.47;;
51866;SDS011;52862;52.504;13.480;2023-04-03T13:02:59;7.03;;;1.60;;
51866;SDS011;52862;52.504;13.480;2023-04-03T13:05:27;4.97;;;1.37;;
51866;SDS011;52862;52.504;13.480;2023-04-03T13:07:57;3.67;;;1.50;;
51866;SDS011;52862;52.504;13.480;2023-04-03T13:10:25;3.60;;;1.30;;
51866;SDS011;52862;52.504;13.480;2023-04-03T13:12:54;2.73;;;1.20;;
51866;SDS011;52862;52.504;13.480;2023-04-03T13:15:23;7.73;;;1.67;;
51866;SDS011;52862;52.504;13.480;2023-04-03T13:17:51;2.33;;;1.03;;
51866;SDS011;52862;52.504;13.480;2023-04-03T13:20:21;5.97;;;1.20;;
51866;SDS011;52862;52.504;13.480;2023-04-03T13:22:51;7.57;;;1.30;;
51866;SDS011;52862;52.504;13.480;2023-04-03T13:25:23;4.57;;;1.53;;
51866;SDS011;52862;52.504;13.480;2023-04-03T13:27:51;2.33;;;1.03;;
51866;SDS011;52862;52.504;13.480;2023-04-03T13:30:37;9.07;;;1.40;;
51866;SDS011;52862;52.504;13.480;2023-04-03T13:33:17;3.37;;;1.37;;
51866;SDS011;52862;52.504;13.480;2023-04-03T13:35:47;10.53;;;1.60;;
51866;SDS011;52862;52.504;13.480;2023-04-03T13:38:22;5.77;;;1.37;;
51866;SDS011;52862;52.504;13.480;2023-04-03T13:40:50;4.33;;;1.90;;
51866;SDS011;52862;52.504;13.480;2023-04-03T13:43:19;9.50;;;2.00;;
51866;SDS011;52862;52.504;13.480;2023-04-03T13:45:56;7.47;;;2.70;;
51866;SDS011;52862;52.504;13.480;2023-04-03T13:48:25;4.27;;;1.90;;
51866;SDS011;52862;52.504;13.480;2023-04-03T13:50:53;12.57;;;2.30;;
51866;SDS011;52862;52.504;13.480;2023-04-03T13:53:26;8.80;;;1.57;;
51866;SDS011;52862;52.504;13.480;2023-04-03T13:55:56;5.63;;;1.40;;
51866;SDS011;52862;52.504;13.480;2023-04-03T13:58:27;9.73;;;2.13;;
51866;SDS011;52862;52.504;13.480;2023-04-03T14:00:55;5.30;;;1.80;;
51866;SDS011;52862;52.504;13.480;2023-04-03T14:03:28;5.90;;;1.83;;
51866;SDS011;52862;52.504;13.480;2023-04-03T14:05:57;13.83;;;2.13;;
51866;SDS011;52862;52.504;13.480;2023-04-03T14:08:24;6.53;;;1.77;;
51866;SDS011;52862;52.504;13.480;2023-04-03T14:11:08;3.83;;;1.90;;
51866;SDS011;52862;52.504;13.480;2023-04-03T14:13:39;13.90;;;1.30;;
51866;SDS011;52862;52.504;13.480;2023-04-03T14:16:07;10.03;;;1.63;;
51866;SDS011;52862;52.504;13.480;2023-04-03T14:18:41;8.40;;;1.33;;
51866;SDS011;52862;52.504;13.480;2023-04-03T14:21:09;4.07;;;1.17;;
51866;SDS011;52862;52.504;13.480;2023-04-03T14:23:37;5.20;;;1.63;;
51866;SDS011;52862;52.504;13.480;2023-04-03T14:26:05;12.30;;;1.83;;
51866;SDS011;52862;52.504;13.480;2023-04-03T14:28:35;5.53;;;1.50;;
51866;SDS011;52862;52.504;13.480;2023-04-03T14:31:02;9.30;;;1.67;;
51866;SDS011;52862;52.504;13.480;2023-04-03T14:33:29;9.03;;;1.43;;
51866;SDS011;52862;52.504;13.480;2023-04-03T14:36:00;4.87;;;1.40;;
51866;SDS011;52862;52.504;13.480;2023-04-03T14:38:28;4.73;;;1.53;;
51866;SDS011;52862;52.504;13.480;2023-04-03T14:40:56;9.07;;;1.90;;
51866;SDS011;52862;52.504;13.480;2023-04-03T14:43:39;12.20;;;2.27;;
51866;SDS011;52862;52.504;13.480;2023-04-03T14:46:11;4.50;;;1.10;;
51866;SDS011;52862;52.504;13.480;2023-04-03T14:48:40;4.90;;;1.50;;
51866;SDS011;52862;52.504;13.480;2023-04-03T14:51:08;4.10;;;1.37;;
51866;SDS011;52862;52.504;13.480;2023-04-03T14:53:36;6.47;;;1.77;;
51866;SDS011;52862;52.504;13.480;2023-04-03T14:56:08;8.90;;;1.87;;
51866;SDS011;52862;52.504;13.480;2023-04-03T14:58:38;6.10;;;1.57;;
51866;SDS011;52862;52.504;13.480;2023-04-03T15:01:04;4.33;;;1.70;;
51866;SDS011;52862;52.504;13.480;2023-04-03T15:03:32;3.90;;;1.60;;
51866;SDS011;52862;52.504;13.480;2023-04-03T15:05:59;9.00;;;1.63;;
51866;SDS011;52862;52.504;13.480;2023-04-03T15:08:26;10.40;;;1.70;;
51866;SDS011;52862;52.504;13.480;2023-04-03T15:10:55;5.07;;;1.57;;